Impacts METAR Board
IDs:

KLGA - New York/La Guardia, NY, US

Updated at: 0500 UTC 14 Dec 2018
Potential Impact None Slight Moderate High
Time 13/17Z 13/18Z 13/19Z 13/20Z 13/21Z 13/22Z 13/23Z 14/00Z 14/01Z 14/02Z 14/03Z 14/04Z 14/05Z
Temp36 38 38 38 37 37 40 40 41 41 42 40 40
Dewpt31 33 34 33 34 33 36 36 37 37 37 37 36
Altim30.41 30.40 30.41 30.44 30.45 30.46 30.45 30.46 30.48 30.47 30.48 30.49 30.48
VIS4 10 5 6 8 6 10 10 10 10 10 10 10
CIG24 23 22 7 8 8 15 11 14 14 12 12 14
CoverBKNOVCOVCOVCOVCOVCOVCOVCOVCOVCOVCOVCOVC
FltCatMVFRMVFRMVFRIFRIFRIFRMVFRMVFRMVFRMVFRMVFRMVFRMVFR
WX-SN -RA-RA -SN-RA BR-RA-RA-RA BR--------------
WDir50504030404050504040404060
WSpd9 9 11 12 10 8 13 12 12 8 9 9 15
WGst-- -- -- -- -- -- -- -- -- -- -- -- --
Raw hourly METARs
KLGA 131651Z 05009KT 4SM -SNRA FEW009 BKN024 02/M01 A3041 RMK AO2 RAB40 SLP296 P0001 T00221006
KLGA 131751Z 05009KT 10SM -RASN BKN023 OVC040 03/01 A3040 RMK AO2 SLP295 P0000 60001 T00330006 10033 20011 58008
KLGA 131851Z 04011KT 5SM -RA BR FEW009 OVC022 03/01 A3041 RMK AO2 SNE13 SLP297 P0000 T00330011
KLGA 131959Z 03012KT 6SM -RA BKN007 BKN018 OVC030 03/01 A3044 RMK AO2 P0001 T00330006
KLGA 132103Z 04010KT 8SM -RA BKN008 BKN018 OVC023 03/01 A3045 RMK AO2 P0000 T00280011 $
KLGA 132151Z 04008KT 6SM -RA BR BKN008 BKN013 OVC023 03/01 A3046 RMK AO2 SLP313 P0002 T00280006 $
KLGA 132300Z 05013KT 10SM SCT008 OVC015 04/02 A3045 RMK AO2 T00440022 $
KLGA 132351Z 05012KT 10SM OVC011 04/02 A3046 RMK AO2 RAB38E48 SLP314 931000 P0000 60006 T00440022 10050 20028 53003 $
KLGA 140051Z 04012KT 10SM FEW008 BKN014 OVC020 05/03 A3048 RMK AO2 SLP320 T00500028 $
KLGA 140151Z 04008KT 10SM FEW008 OVC014 05/03 A3047 RMK AO2 SLP319 T00500028 $
KLGA 140251Z 04009KT 10SM FEW008 OVC012 06/03 A3048 RMK AO2 SLP321 T00560028 51007 $
KLGA 140351Z 04009KT 10SM OVC012 04/03 A3049 RMK AO2 RAB00E15 SLP324 P0000 T00440028 $
KLGA 140451Z 06015KT 10SM BKN014 OVC033 04/02 A3048 RMK AO2 SLP321 T00440022 400560006 $



Page loaded:  05:24 UTC  |   09:24 PM Pacific  |   10:24 PM Mountain  |   11:24 PM Central  |   12:24 AM Eastern

 

ADVISORIES

FORECASTS

FORECASTS

OBSERVATIONS

USER TOOLS

ABOUT US